Akaska, SD (57420)

6:27 AM CST on December 05, 2016 (GMT -0600)
Pfitzer Pest Control | | Change Station
Active Advisory: Winter Weather Advisory

Elev 1634 ft 45.53 °N, 100.31 °W | Updated 4 seconds ago

Clear
Clear
23.2 °F
Feels Like 23 °F
N
0.0
Wind Variable Wind from NNE

Today
High -- | Low -- °F
--% Chance of Precip.
Yesterday
High -- | Low -- °F
Precip. -- in
Pressure 29.53 in
Visibility 10.0 miles
Clouds Clear
Windchill 23 °F
Dew Point 19 °F
Humidity 86%
Rainfall 0.00 in
Snow Depth Not available.
8:04 AM 4:57 PM
Waxing Crescent, 31% visible
METAR KMBG 051152Z AUTO 10009KT 10SM CLR M02/M07 A2947 RMK AO2 SLP000 T10171067 10011 21022 56022 $
Pressure 29.53 in
Visibility 10.0 miles
Clouds Clear
Windchill 23 °F
Dew Point 19 °F
Humidity 86%
Rainfall 0.00 in
Snow Depth Not available.
8:04 AM 4:57 PM
Waxing Crescent, 31% visible
METAR KMBG 051152Z AUTO 10009KT 10SM CLR M02/M07 A2947 RMK AO2 SLP000 T10171067 10011 21022 56022 $

10-Day Weather Forecast

Almanac

Astronomy

Dec. 05, 2016 Rise Set
Actual Time
Civil Twilight
Nautical Twilight
Astronomical Twilight
Moon
Length of Visible Light
Length of Day
Tomorrow will be .
, % of the Moon is Illuminated

Today's Extremes

State Highs State Lows

Community

WunderPhotos

Upload Photos

1,955,778 photos uploaded!

WunderBlog® & News

Nearby

Air Quality

  Air Quality AQ Index Pollutant
Not available.

Snow Depth

Station Depth Elevation

Earthquake Activity

City Distance Mag. Time & Date
Minimum magnitude displayed is 2.5.

Coastal Water Temperatures

Place Temperature

Stations

Nearby Weather Stations

Station Location Temp. Windchill Dew Point Humidity Wind Precip. Elev Updated Type
                   

Watches & Warnings

Winter Weather Advisory
Issued: 3:08 AM MST Dec. 5, 2016 – National Weather Service

... Winter Weather Advisory in effect from noon CST /11 am MST/
today to 10 PM CST /9 PM MST/ this evening...

The National Weather Service in Aberdeen has issued a Winter
Weather Advisory for blowing snow... which is in effect from noon
CST /11 am MST/ today to 10 PM CST /9 PM MST/ this evening.

* Timing... the front is moving into the western Dakotas early
this morning and will reach the Missouri Valley by mid day. Snow
is expected to develop along and behind the front.

* Main impact... snow accumulation of 1 to 2 inches is possible as
the cold air scours out any moisture... however the main impact
from this system is the potential for hazardous travel due to
low visibility conditions.

Precautionary/preparedness actions...

A Winter Weather Advisory for blowing snow means that
visibilities will be limited due to strong winds blowing snow
around. Use caution when traveling... especially in open areas.



Connelly